Time;durP1;ratioP1;P1;durP2;ratioP2;P2;SDS_P1;SDS_P2;PMS_P1;PMS_P2;Temp;Humidity;BMP_temperature;BMP_pressure;BME280_temperature;BME280_humidity;BME280_pressure;Samples;Min_cycle;Max_cycle;Signal;HPM_P1;HPM_P2
2022/03/04 00:01:04;;;;;;;18.00;10.70;;;;;;;;;;5032695;28;20236;-56
2022/03/04 00:03:30;;;;;;;16.30;10.77;;;;;;;;;;5033230;28;20285;-54
2022/03/04 00:05:56;;;;;;;13.90;9.80;;;;;;;;;;5032893;28;20598;-54
2022/03/04 00:08:23;;;;;;;15.97;10.30;;;;;;;;;;5032699;28;20857;-54
2022/03/04 00:10:49;;;;;;;15.13;9.70;;;;;;;;;;5032492;28;20467;-55
2022/03/04 00:13:15;;;;;;;13.97;9.60;;;;;;;;;;5032764;28;20467;-55
2022/03/04 00:15:41;;;;;;;14.13;9.57;;;;;;;;;;5032948;28;20573;-54
2022/03/04 00:18:07;;;;;;;12.27;10.03;;;;;;;;;;5032571;28;20515;-56
2022/03/04 00:20:33;;;;;;;16.20;9.73;;;;;;;;;;5032425;28;20235;-55
2022/03/04 00:22:59;;;;;;;12.57;8.97;;;;;;;;;;5032502;28;20220;-55
2022/03/04 00:25:27;;;;;;;13.47;10.10;;;;;;;;;;5032429;28;20280;-53
2022/03/04 00:27:53;;;;;;;13.43;9.47;;;;;;;;;;5032398;28;20802;-55
2022/03/04 00:30:19;;;;;;;13.77;9.03;;;;;;;;;;5032451;28;20436;-55
2022/03/04 00:32:45;;;;;;;12.77;9.33;;;;;;;;;;5032478;28;20459;-55
2022/03/04 00:35:12;;;;;;;12.47;9.13;;;;;;;;;;5032107;28;20474;-54
2022/03/04 00:37:38;;;;;;;12.70;8.53;;;;;;;;;;5032549;28;20427;-55
2022/03/04 00:40:06;;;;;;;14.10;9.27;;;;;;;;;;5032056;28;20482;-55
2022/03/04 00:42:33;;;;;;;13.57;9.30;;;;;;;;;;5030707;28;20450;-56
2022/03/04 00:44:59;;;;;;;12.70;9.50;;;;;;;;;;5032306;28;20439;-55
2022/03/04 00:47:25;;;;;;;14.20;9.00;;;;;;;;;;5032127;28;20802;-56
2022/03/04 00:49:51;;;;;;;13.30;9.40;;;;;;;;;;5032172;28;20443;-56
2022/03/04 00:52:17;;;;;;;15.60;9.50;;;;;;;;;;5032174;28;20203;-56
2022/03/04 00:54:43;;;;;;;14.90;9.33;;;;;;;;;;5031375;28;20444;-56
2022/03/04 00:57:09;;;;;;;15.60;10.30;;;;;;;;;;5031945;28;20477;-56
2022/03/04 00:59:36;;;;;;;11.90;9.10;;;;;;;;;;5031573;28;20454;-56
2022/03/04 01:02:03;;;;;;;13.23;8.93;;;;;;;;;;5031730;28;20217;-56
2022/03/04 01:04:29;;;;;;;12.20;9.27;;;;;;;;;;5031980;28;20491;-56
2022/03/04 01:06:55;;;;;;;14.03;9.57;;;;;;;;;;5031710;28;20443;-56
2022/03/04 01:09:21;;;;;;;12.73;9.00;;;;;;;;;;5031722;28;20201;-56
2022/03/04 01:11:47;;;;;;;16.30;9.03;;;;;;;;;;5031954;28;20284;-57
2022/03/04 01:14:13;;;;;;;15.03;9.40;;;;;;;;;;5031620;28;20443;-57
2022/03/04 01:16:40;;;;;;;12.30;8.73;;;;;;;;;;5031680;28;20444;-56
2022/03/04 01:19:06;;;;;;;13.33;8.50;;;;;;;;;;5031662;28;20201;-57
2022/03/04 01:21:32;;;;;;;14.60;9.63;;;;;;;;;;5030051;28;20475;-56
2022/03/04 01:23:59;;;;;;;12.53;8.83;;;;;;;;;;5031694;28;20517;-57
2022/03/04 01:26:25;;;;;;;13.07;8.43;;;;;;;;;;5029820;28;21052;-55
2022/03/04 01:28:51;;;;;;;11.10;8.53;;;;;;;;;;5031527;28;20547;-55
2022/03/04 01:31:17;;;;;;;12.70;8.57;;;;;;;;;;5029845;28;20284;-57
2022/03/04 01:33:44;;;;;;;11.60;8.47;;;;;;;;;;5031432;28;20471;-56
2022/03/04 01:36:10;;;;;;;11.27;8.17;;;;;;;;;;5031482;28;20211;-56
2022/03/04 01:38:36;;;;;;;12.10;9.07;;;;;;;;;;5031650;28;20462;-56
2022/03/04 01:41:02;;;;;;;12.10;8.67;;;;;;;;;;5031459;28;20518;-57
2022/03/04 01:43:28;;;;;;;12.80;9.00;;;;;;;;;;5031664;28;20251;-56
2022/03/04 01:45:54;;;;;;;11.93;8.37;;;;;;;;;;5031522;28;20451;-56
2022/03/04 01:48:21;;;;;;;11.50;8.67;;;;;;;;;;5031326;28;20208;-56
2022/03/04 01:50:49;;;;;;;12.17;9.23;;;;;;;;;;5031427;28;20188;-56
2022/03/04 01:53:15;;;;;;;11.27;8.33;;;;;;;;;;5031441;28;20945;-55
2022/03/04 01:55:41;;;;;;;10.93;8.63;;;;;;;;;;5031351;28;20493;-55
2022/03/04 01:58:07;;;;;;;13.10;8.67;;;;;;;;;;5031278;28;20435;-55
2022/03/04 02:00:33;;;;;;;16.30;9.10;;;;;;;;;;5031405;28;20317;-55
2022/03/04 02:03:00;;;;;;;11.73;8.33;;;;;;;;;;5031675;28;20295;-57
2022/03/04 02:05:26;;;;;;;12.20;9.10;;;;;;;;;;5032103;28;20440;-56
2022/03/04 02:07:54;;;;;;;12.33;8.53;;;;;;;;;;5035242;28;20438;-57
2022/03/04 02:10:20;;;;;;;12.80;8.60;;;;;;;;;;5035134;28;20452;-55
2022/03/04 02:12:46;;;;;;;13.13;9.30;;;;;;;;;;5035203;28;20432;-56
2022/03/04 02:15:12;;;;;;;12.83;9.03;;;;;;;;;;5035009;28;20454;-55
2022/03/04 02:17:38;;;;;;;15.33;10.27;;;;;;;;;;5035167;28;20280;-56
2022/03/04 02:20:05;;;;;;;11.60;8.47;;;;;;;;;;5034604;28;20443;-56
2022/03/04 02:22:32;;;;;;;13.73;8.90;;;;;;;;;;5035100;28;20937;-56
2022/03/04 02:24:58;;;;;;;13.27;9.50;;;;;;;;;;5034952;28;20503;-56
2022/03/04 02:27:24;;;;;;;13.13;8.63;;;;;;;;;;5034681;28;20826;-57
2022/03/04 02:29:50;;;;;;;12.57;8.67;;;;;;;;;;5034903;28;20443;-56
2022/03/04 02:32:18;;;;;;;13.43;9.67;;;;;;;;;;5034720;28;20209;-56
2022/03/04 02:34:44;;;;;;;13.00;9.10;;;;;;;;;;5034798;28;20914;-54
2022/03/04 02:37:10;;;;;;;10.80;8.37;;;;;;;;;;5034651;28;20482;-55
2022/03/04 02:39:37;;;;;;;12.23;9.10;;;;;;;;;;5034751;28;20312;-56
2022/03/04 02:42:03;;;;;;;12.13;9.57;;;;;;;;;;5034441;28;20479;-56
2022/03/04 02:44:29;;;;;;;13.03;8.80;;;;;;;;;;5034660;28;20482;-56
2022/03/04 02:46:55;;;;;;;12.87;9.10;;;;;;;;;;5034615;28;20471;-56
2022/03/04 02:49:21;;;;;;;14.93;9.50;;;;;;;;;;5034353;28;20201;-57
2022/03/04 02:51:47;;;;;;;11.83;9.10;;;;;;;;;;5034545;28;20655;-56
2022/03/04 02:54:13;;;;;;;12.30;8.80;;;;;;;;;;5034533;28;20201;-57
2022/03/04 02:56:41;;;;;;;11.73;8.70;;;;;;;;;;5034447;28;20530;-55
2022/03/04 02:59:06;;;;;;;11.87;9.17;;;;;;;;;;5034158;28;20435;-56
2022/03/04 03:01:32;;;;;;;14.37;9.23;;;;;;;;;;5033818;28;20541;-56
2022/03/04 03:03:58;;;;;;;14.17;9.53;;;;;;;;;;5033708;28;20239;-55
2022/03/04 03:06:24;;;;;;;10.83;9.07;;;;;;;;;;5032097;28;20467;-55
2022/03/04 03:08:50;;;;;;;12.77;9.07;;;;;;;;;;5032213;28;20205;-57
2022/03/04 03:11:16;;;;;;;12.50;8.70;;;;;;;;;;5033842;28;20197;-57
2022/03/04 03:13:44;;;;;;;14.57;9.50;;;;;;;;;;5033999;28;20938;-55
2022/03/04 03:16:10;;;;;;;12.67;8.60;;;;;;;;;;5033891;28;20446;-56
2022/03/04 03:18:36;;;;;;;12.87;8.87;;;;;;;;;;5033001;28;20439;-56
2022/03/04 03:21:03;;;;;;;10.87;8.53;;;;;;;;;;5033544;28;20484;-55
2022/03/04 03:23:28;;;;;;;10.63;8.63;;;;;;;;;;5033604;28;20979;-57
2022/03/04 03:25:54;;;;;;;11.83;8.70;;;;;;;;;;5033554;28;20467;-55
2022/03/04 03:28:21;;;;;;;11.30;8.60;;;;;;;;;;5033278;28;20918;-56
2022/03/04 03:30:48;;;;;;;12.33;8.50;;;;;;;;;;5033491;28;20945;-56
2022/03/04 03:33:14;;;;;;;13.03;9.20;;;;;;;;;;5033490;28;20435;-55
2022/03/04 03:35:40;;;;;;;14.00;9.20;;;;;;;;;;5033238;28;20443;-56
2022/03/04 03:38:06;;;;;;;11.67;8.60;;;;;;;;;;5033127;28;20714;-55
2022/03/04 03:40:32;;;;;;;14.37;8.80;;;;;;;;;;5033322;28;20558;-56
2022/03/04 03:42:58;;;;;;;11.43;8.97;;;;;;;;;;5033475;28;20282;-55
2022/03/04 03:45:24;;;;;;;11.97;7.87;;;;;;;;;;5033071;28;20288;-55
2022/03/04 03:47:53;;;;;;;12.57;7.93;;;;;;;;;;5033153;28;20193;-56
2022/03/04 03:50:20;;;;;;;12.13;8.33;;;;;;;;;;5032977;28;20436;-55
2022/03/04 03:52:46;;;;;;;12.63;8.73;;;;;;;;;;5033184;28;20439;-55
2022/03/04 03:55:12;;;;;;;11.20;8.33;;;;;;;;;;5032854;28;20440;-55
2022/03/04 03:57:38;;;;;;;11.53;8.83;;;;;;;;;;5032809;28;21056;-56
2022/03/04 04:00:05;;;;;;;12.23;8.60;;;;;;;;;;5032454;28;20935;-55
2022/03/04 04:02:31;;;;;;;13.53;8.63;;;;;;;;;;5032919;28;20440;-56
2022/03/04 04:04:58;;;;;;;12.63;8.53;;;;;;;;;;5032767;28;20933;-56
2022/03/04 04:07:24;;;;;;;11.43;8.70;;;;;;;;;;5032544;28;20243;-55
2022/03/04 04:09:50;;;;;;;11.87;8.00;;;;;;;;;;5032664;28;20444;-55
2022/03/04 04:12:16;;;;;;;12.50;8.10;;;;;;;;;;5032516;28;20674;-56
2022/03/04 04:14:42;;;;;;;12.00;8.10;;;;;;;;;;5032595;28;20432;-56
2022/03/04 04:17:08;;;;;;;12.83;9.20;;;;;;;;;;5032513;28;20254;-56
2022/03/04 04:19:34;;;;;;;10.77;7.93;;;;;;;;;;5032418;28;20450;-56
2022/03/04 04:22:04;;;;;;;11.90;8.77;;;;;;;;;;5032376;28;20483;-56
2022/03/04 04:24:30;;;;;;;11.10;8.43;;;;;;;;;;5032416;28;20586;-56
2022/03/04 04:26:56;;;;;;;12.60;8.63;;;;;;;;;;5032352;28;20520;-56
2022/03/04 04:29:22;;;;;;;9.87;8.60;;;;;;;;;;5032039;28;20945;-56
2022/03/04 04:31:48;;;;;;;15.17;9.13;;;;;;;;;;5032120;28;20201;-56
2022/03/04 04:34:14;;;;;;;11.10;8.47;;;;;;;;;;5031888;28;20307;-55
2022/03/04 04:36:40;;;;;;;11.93;9.43;;;;;;;;;;5032170;28;20258;-55
2022/03/04 04:39:07;;;;;;;11.97;9.07;;;;;;;;;;5031919;28;20196;-57
2022/03/04 04:41:34;;;;;;;11.27;8.60;;;;;;;;;;5031860;28;20487;-56
2022/03/04 04:44:00;;;;;;;11.17;9.17;;;;;;;;;;5032050;28;20432;-56
2022/03/04 04:46:26;;;;;;;13.03;9.23;;;;;;;;;;5031816;28;20444;-56
2022/03/04 04:48:52;;;;;;;14.40;10.23;;;;;;;;;;5031945;28;20275;-56
2022/03/04 04:51:18;;;;;;;12.07;9.80;;;;;;;;;;5031668;28;20439;-56
2022/03/04 04:53:44;;;;;;;13.23;9.67;;;;;;;;;;5031916;28;20499;-56
2022/03/04 04:56:12;;;;;;;14.27;9.10;;;;;;;;;;5031760;28;20435;-56
2022/03/04 04:58:38;;;;;;;12.60;9.73;;;;;;;;;;5031785;28;20529;-56
2022/03/04 05:01:04;;;;;;;12.73;10.00;;;;;;;;;;5031566;28;20495;-56
2022/03/04 05:03:30;;;;;;;12.47;9.93;;;;;;;;;;5031806;28;20208;-57
2022/03/04 05:05:57;;;;;;;11.40;9.60;;;;;;;;;;5031914;28;20424;-56
2022/03/04 05:08:27;;;;;;;11.63;9.37;;;;;;;;;;5031611;28;20200;-55
2022/03/04 05:10:53;;;;;;;13.63;10.10;;;;;;;;;;5031599;28;20447;-56
2022/03/04 05:13:20;;;;;;;14.97;9.93;;;;;;;;;;5031405;28;20997;-55
2022/03/04 05:15:46;;;;;;;17.30;10.00;;;;;;;;;;5031569;28;20439;-56
2022/03/04 05:18:12;;;;;;;15.03;9.83;;;;;;;;;;5031463;28;20435;-56
2022/03/04 05:20:39;;;;;;;11.93;9.40;;;;;;;;;;5031347;28;20510;-57
2022/03/04 05:23:05;;;;;;;15.90;9.67;;;;;;;;;;5031206;28;20450;-56
2022/03/04 05:25:30;;;;;;;12.23;8.83;;;;;;;;;;5031214;28;20836;-56
2022/03/04 05:27:56;;;;;;;12.03;9.03;;;;;;;;;;5031130;28;20470;-56
2022/03/04 05:30:24;;;;;;;11.57;9.37;;;;;;;;;;5031079;28;20236;-56
2022/03/04 05:32:50;;;;;;;14.33;8.40;;;;;;;;;;5030930;28;20482;-57
2022/03/04 05:35:16;;;;;;;12.60;9.17;;;;;;;;;;5030650;28;20731;-57
2022/03/04 05:37:42;;;;;;;11.63;8.80;;;;;;;;;;5030870;28;20207;-57
2022/03/04 05:40:08;;;;;;;13.17;9.43;;;;;;;;;;5030574;28;20440;-55
2022/03/04 05:42:34;;;;;;;11.80;8.53;;;;;;;;;;5031140;28;20227;-55
2022/03/04 05:45:00;;;;;;;13.17;8.93;;;;;;;;;;5031106;28;20482;-56
2022/03/04 05:47:30;;;;;;;13.27;9.00;;;;;;;;;;5030620;28;20460;-57
2022/03/04 05:49:56;;;;;;;12.80;9.73;;;;;;;;;;5030941;28;20201;-57
2022/03/04 05:52:22;;;;;;;13.77;9.17;;;;;;;;;;5030775;28;20771;-56
2022/03/04 05:54:48;;;;;;;12.33;8.90;;;;;;;;;;5030900;28;20203;-55
2022/03/04 05:57:14;;;;;;;10.10;8.87;;;;;;;;;;5030850;28;20447;-56
2022/03/04 05:59:40;;;;;;;11.40;8.73;;;;;;;;;;5030881;28;20256;-56
2022/03/04 06:02:06;;;;;;;15.00;9.93;;;;;;;;;;5030878;28;20306;-56
2022/03/04 06:04:33;;;;;;;13.73;9.23;;;;;;;;;;5030484;28;20505;-55
2022/03/04 06:06:59;;;;;;;14.33;10.23;;;;;;;;;;5030605;28;20444;-55
2022/03/04 06:09:28;;;;;;;13.80;9.73;;;;;;;;;;5030621;28;20450;-56
2022/03/04 06:11:54;;;;;;;13.53;9.03;;;;;;;;;;5030803;28;20221;-56
2022/03/04 06:14:20;;;;;;;18.37;10.17;;;;;;;;;;5030361;28;20440;-56
2022/03/04 06:16:46;;;;;;;12.87;10.30;;;;;;;;;;5030450;28;20502;-55
2022/03/04 06:19:12;;;;;;;12.07;9.43;;;;;;;;;;5030308;28;20443;-55
2022/03/04 06:21:40;;;;;;;14.00;9.77;;;;;;;;;;5030451;28;20252;-56
2022/03/04 06:24:06;;;;;;;15.30;10.67;;;;;;;;;;5030432;28;20221;-56
2022/03/04 06:26:32;;;;;;;12.93;9.53;;;;;;;;;;5030277;28;20487;-57
2022/03/04 06:28:58;;;;;;;14.77;10.10;;;;;;;;;;5030550;28;20534;-55
2022/03/04 06:31:24;;;;;;;13.00;9.87;;;;;;;;;;5030577;28;20439;-55
2022/03/04 06:33:50;;;;;;;14.47;10.03;;;;;;;;;;5030462;28;20522;-56
2022/03/04 06:36:17;;;;;;;14.33;10.83;;;;;;;;;;5030483;28;20522;-56
2022/03/04 06:38:45;;;;;;;15.73;10.70;;;;;;;;;;5030725;28;20221;-56
2022/03/04 06:41:11;;;;;;;15.20;10.27;;;;;;;;;;5030326;28;20507;-56
2022/03/04 06:43:38;;;;;;;13.97;10.80;;;;;;;;;;5030733;28;20440;-56
2022/03/04 06:46:04;;;;;;;14.70;10.27;;;;;;;;;;5030562;28;20436;-56
2022/03/04 06:48:30;;;;;;;15.50;11.00;;;;;;;;;;5030548;28;20519;-56
2022/03/04 06:50:56;;;;;;;15.17;11.27;;;;;;;;;;5030696;28;20431;-56
2022/03/04 06:53:24;;;;;;;15.37;10.60;;;;;;;;;;5032756;28;20677;-56
2022/03/04 06:55:52;;;;;;;14.30;10.93;;;;;;;;;;5034248;28;20439;-56
2022/03/04 06:58:18;;;;;;;14.07;10.53;;;;;;;;;;5033864;28;20446;-56
2022/03/04 07:00:44;;;;;;;14.83;11.20;;;;;;;;;;5033880;28;20553;-56
2022/03/04 07:03:10;;;;;;;16.53;10.73;;;;;;;;;;5033702;28;20446;-56
2022/03/04 07:05:37;;;;;;;16.17;10.80;;;;;;;;;;5033683;28;20436;-56
2022/03/04 07:08:04;;;;;;;15.37;11.00;;;;;;;;;;5033702;28;20205;-55
2022/03/04 07:10:30;;;;;;;13.23;10.57;;;;;;;;;;5033625;28;20464;-56
2022/03/04 07:12:57;;;;;;;17.27;11.30;;;;;;;;;;5033521;28;20965;-55
2022/03/04 07:15:23;;;;;;;14.97;10.63;;;;;;;;;;5033583;28;20235;-55
2022/03/04 07:17:49;;;;;;;13.97;10.37;;;;;;;;;;5033236;28;20920;-56
2022/03/04 07:20:15;;;;;;;15.53;10.73;;;;;;;;;;5033668;28;20200;-56
2022/03/04 07:22:42;;;;;;;15.10;10.77;;;;;;;;;;5033545;28;20888;-56
2022/03/04 07:25:09;;;;;;;16.97;11.47;;;;;;;;;;5033370;28;20440;-56
2022/03/04 07:27:35;;;;;;;17.83;10.53;;;;;;;;;;5033403;28;20476;-56
2022/03/04 07:30:04;;;;;;;15.63;10.27;;;;;;;;;;5033646;28;20444;-60
2022/03/04 07:32:31;;;;;;;15.33;10.40;;;;;;;;;;5033566;28;20447;-57
2022/03/04 07:34:58;;;;;;;15.67;10.67;;;;;;;;;;5033575;28;20451;-57
2022/03/04 07:37:24;;;;;;;13.50;10.07;;;;;;;;;;5033364;28;20443;-57
2022/03/04 07:39:50;;;;;;;13.90;9.40;;;;;;;;;;5033297;28;20443;-56
2022/03/04 07:42:16;;;;;;;15.33;10.70;;;;;;;;;;5033276;28;20229;-57
2022/03/04 07:44:42;;;;;;;12.83;8.90;;;;;;;;;;5033427;28;20450;-56
2022/03/04 07:47:09;;;;;;;15.53;9.77;;;;;;;;;;5033129;28;20976;-57
2022/03/04 07:49:35;;;;;;;15.43;8.93;;;;;;;;;;5033125;28;20506;-57
2022/03/04 07:52:01;;;;;;;12.63;9.50;;;;;;;;;;5033201;28;20450;-56
2022/03/04 07:54:27;;;;;;;10.63;8.90;;;;;;;;;;5033205;28;20456;-56
2022/03/04 07:56:55;;;;;;;12.17;8.97;;;;;;;;;;5033097;28;20223;-57
2022/03/04 07:59:21;;;;;;;12.73;9.23;;;;;;;;;;5032928;28;20271;-55
2022/03/04 08:01:48;;;;;;;14.90;9.07;;;;;;;;;;5032645;28;21005;-57
2022/03/04 08:04:15;;;;;;;12.63;9.20;;;;;;;;;;5032565;28;20258;-58
2022/03/04 08:06:41;;;;;;;9.20;7.90;;;;;;;;;;5032927;28;20527;-56
2022/03/04 08:09:07;;;;;;;9.50;8.30;;;;;;;;;;5032959;28;21024;-56
2022/03/04 08:11:34;;;;;;;13.63;8.10;;;;;;;;;;5032852;28;20527;-58
2022/03/04 08:14:00;;;;;;;9.83;8.43;;;;;;;;;;5032878;28;20591;-56
2022/03/04 08:16:29;;;;;;;9.53;7.80;;;;;;;;;;5032587;28;20454;-55
2022/03/04 08:18:55;;;;;;;11.60;8.03;;;;;;;;;;5032648;28;20200;-54
2022/03/04 08:21:22;;;;;;;13.07;7.90;;;;;;;;;;5032398;28;20479;-54
2022/03/04 08:23:48;;;;;;;11.00;8.63;;;;;;;;;;5032527;28;20221;-54
2022/03/04 08:26:14;;;;;;;11.73;7.83;;;;;;;;;;5032333;28;20537;-54
2022/03/04 08:28:40;;;;;;;12.63;8.13;;;;;;;;;;5032507;28;20254;-54
2022/03/04 08:31:10;;;;;;;10.00;8.37;;;;;;;;;;5032245;28;20655;-55
2022/03/04 08:33:36;;;;;;;8.80;7.20;;;;;;;;;;5032231;28;20199;-55
2022/03/04 08:36:03;;;;;;;12.60;8.10;;;;;;;;;;5032520;28;20516;-55
2022/03/04 08:38:30;;;;;;;10.43;7.97;;;;;;;;;;5032501;28;20483;-55
2022/03/04 08:40:56;;;;;;;10.67;7.60;;;;;;;;;;5030458;28;20476;-55
2022/03/04 08:43:22;;;;;;;10.83;6.63;;;;;;;;;;5031960;28;21080;-55
2022/03/04 08:45:48;;;;;;;12.47;7.47;;;;;;;;;;5031944;28;20201;-55
2022/03/04 08:48:14;;;;;;;11.70;7.73;;;;;;;;;;5031884;28;20239;-56
2022/03/04 08:50:40;;;;;;;9.80;7.67;;;;;;;;;;5031897;28;20201;-55
2022/03/04 08:53:06;;;;;;;10.43;7.23;;;;;;;;;;5031687;28;20452;-57
2022/03/04 08:55:33;;;;;;;12.50;7.57;;;;;;;;;;5030458;28;20891;-56
2022/03/04 08:58:00;;;;;;;11.53;7.33;;;;;;;;;;5031814;28;20440;-56
2022/03/04 09:00:28;;;;;;;10.67;8.03;;;;;;;;;;5031560;28;20847;-57
2022/03/04 09:02:54;;;;;;;9.33;7.47;;;;;;;;;;5031581;28;20479;-57
2022/03/04 09:05:20;;;;;;;11.00;7.17;;;;;;;;;;5031624;28;20439;-57
2022/03/04 09:07:46;;;;;;;11.43;7.60;;;;;;;;;;5031749;28;20435;-57
2022/03/04 09:10:12;;;;;;;9.77;7.07;;;;;;;;;;5031403;28;20290;-56
2022/03/04 09:12:40;;;;;;;9.67;7.07;;;;;;;;;;5031731;28;20255;-56
2022/03/04 09:15:07;;;;;;;11.93;8.70;;;;;;;;;;5030347;28;20435;-57
2022/03/04 09:17:33;;;;;;;10.93;7.80;;;;;;;;;;5031164;28;20478;-57
2022/03/04 09:19:59;;;;;;;10.93;8.00;;;;;;;;;;5031533;28;20472;-55
2022/03/04 09:22:25;;;;;;;12.50;8.50;;;;;;;;;;5031087;28;20485;-56
2022/03/04 09:24:51;;;;;;;9.10;7.10;;;;;;;;;;5031155;28;20992;-56
2022/03/04 09:27:17;;;;;;;8.87;7.90;;;;;;;;;;5031055;28;20516;-56
2022/03/04 09:29:45;;;;;;;10.93;7.00;;;;;;;;;;5031444;28;20436;-56
2022/03/04 09:32:11;;;;;;;9.93;7.20;;;;;;;;;;5031182;28;20702;-57
2022/03/04 09:34:37;;;;;;;9.30;7.00;;;;;;;;;;5031190;28;20598;-56
2022/03/04 09:37:04;;;;;;;12.73;7.70;;;;;;;;;;5031068;28;20443;-56
2022/03/04 09:39:30;;;;;;;11.73;7.57;;;;;;;;;;5031235;28;20454;-56
2022/03/04 09:41:56;;;;;;;11.07;7.23;;;;;;;;;;5031016;28;20996;-55
2022/03/04 09:44:22;;;;;;;9.60;6.40;;;;;;;;;;5030984;28;20696;-55
2022/03/04 09:46:50;;;;;;;9.90;6.80;;;;;;;;;;5031094;28;20463;-56
2022/03/04 09:49:17;;;;;;;8.03;6.20;;;;;;;;;;5031064;28;20443;-56
2022/03/04 09:51:43;;;;;;;8.57;6.53;;;;;;;;;;5031242;28;20432;-55
2022/03/04 09:54:09;;;;;;;9.07;6.60;;;;;;;;;;5031010;28;20432;-55
2022/03/04 09:56:35;;;;;;;7.70;6.17;;;;;;;;;;5030872;28;20443;-55
2022/03/04 09:59:01;;;;;;;9.67;6.30;;;;;;;;;;5031021;28;20196;-55
2022/03/04 10:01:27;;;;;;;9.50;6.97;;;;;;;;;;5030800;28;20574;-55
2022/03/04 10:03:55;;;;;;;9.43;6.70;;;;;;;;;;5030878;28;20526;-56
2022/03/04 10:06:22;;;;;;;9.67;7.10;;;;;;;;;;5030922;28;20274;-60
2022/03/04 10:08:49;;;;;;;10.13;7.30;;;;;;;;;;5031010;28;20431;-56
2022/03/04 10:11:23;;;;;;;9.30;7.27;;;;;;;;;;5030990;28;20435;-56
2022/03/04 10:13:50;;;;;;;7.77;6.43;;;;;;;;;;5030905;28;20853;-58
2022/03/04 10:16:22;;;;;;;8.80;6.67;;;;;;;;;;5030878;28;20447;-58
2022/03/04 10:19:03;;;;;;;8.67;6.17;;;;;;;;;;5030724;28;20463;-57
2022/03/04 10:21:43;;;;;;;9.77;7.33;;;;;;;;;;5030798;28;20502;-57
2022/03/04 10:24:09;;;;;;;8.07;6.60;;;;;;;;;;5030552;28;20589;-57
2022/03/04 10:26:35;;;;;;;9.60;6.70;;;;;;;;;;5031657;28;20475;-57
2022/03/04 10:29:05;;;;;;;10.93;7.27;;;;;;;;;;5034642;28;20440;-57
2022/03/04 10:31:31;;;;;;;10.40;7.80;;;;;;;;;;5034488;28;20539;-57
2022/03/04 10:34:06;;;;;;;8.03;6.60;;;;;;;;;;5034455;28;20515;-57
2022/03/04 10:36:32;;;;;;;11.73;7.90;;;;;;;;;;5034645;28;20340;-57
2022/03/04 10:39:08;;;;;;;9.37;7.40;;;;;;;;;;5034547;28;20197;-57
2022/03/04 10:41:35;;;;;;;10.97;7.83;;;;;;;;;;5034302;28;20282;-57
2022/03/04 10:44:01;;;;;;;10.70;7.40;;;;;;;;;;5034404;28;20205;-57
2022/03/04 10:46:28;;;;;;;9.83;7.50;;;;;;;;;;5034009;28;20263;-57
2022/03/04 10:48:55;;;;;;;10.10;7.77;;;;;;;;;;5034296;28;20678;-57
2022/03/04 10:51:34;;;;;;;10.27;7.70;;;;;;;;;;5034220;28;20218;-55
2022/03/04 10:54:11;;;;;;;9.33;7.93;;;;;;;;;;5034437;28;20545;-59
2022/03/04 10:56:48;;;;;;;9.50;7.53;;;;;;;;;;5034005;28;20663;-60
2022/03/04 10:59:14;;;;;;;10.70;8.03;;;;;;;;;;5034298;28;20615;-57
2022/03/04 11:01:46;;;;;;;9.80;7.63;;;;;;;;;;5034260;28;20565;-59
2022/03/04 11:04:12;;;;;;;10.07;7.57;;;;;;;;;;5034091;28;20197;-59
2022/03/04 11:06:39;;;;;;;9.43;7.07;;;;;;;;;;5032201;28;20273;-59
2022/03/04 11:09:05;;;;;;;9.73;7.47;;;;;;;;;;5032526;28;20254;-57
2022/03/04 11:11:33;;;;;;;10.23;8.00;;;;;;;;;;5033347;28;20208;-58
2022/03/04 11:13:59;;;;;;;10.93;7.23;;;;;;;;;;5033785;28;20201;-59
2022/03/04 11:16:25;;;;;;;8.83;7.57;;;;;;;;;;5033475;28;20192;-59
2022/03/04 11:18:52;;;;;;;9.00;7.50;;;;;;;;;;5033544;28;20284;-59
2022/03/04 11:21:18;;;;;;;10.10;7.93;;;;;;;;;;5033320;28;20308;-59
2022/03/04 11:23:46;;;;;;;8.27;7.30;;;;;;;;;;5033676;28;20244;-58
2022/03/04 11:26:19;;;;;;;11.20;8.37;;;;;;;;;;5033303;28;20243;-58
2022/03/04 11:28:51;;;;;;;10.83;7.83;;;;;;;;;;5033672;28;20215;-57
2022/03/04 11:31:20;;;;;;;10.33;7.43;;;;;;;;;;5033307;28;20208;-58
2022/03/04 11:33:52;;;;;;;10.33;7.10;;;;;;;;;;5033301;28;20262;-57
2022/03/04 11:36:19;;;;;;;9.37;7.53;;;;;;;;;;5033052;28;20201;-59
2022/03/04 11:39:03;;;;;;;10.90;7.37;;;;;;;;;;5032791;28;20251;-58
2022/03/04 11:41:37;;;;;;;7.97;7.00;;;;;;;;;;5033479;28;20679;-58
2022/03/04 11:44:12;;;;;;;8.97;6.40;;;;;;;;;;5033363;28;20200;-58
2022/03/04 11:46:43;;;;;;;7.00;6.00;;;;;;;;;;5033334;28;20574;-58
2022/03/04 11:49:27;;;;;;;8.73;6.30;;;;;;;;;;5032910;28;20272;-57
2022/03/04 11:52:21;;;;;;;9.10;6.53;;;;;;;;;;5033617;28;20247;-58
2022/03/04 11:55:05;;;;;;;7.67;6.77;;;;;;;;;;5031662;28;20239;-57
2022/03/04 11:57:34;;;;;;;8.17;6.63;;;;;;;;;;5032832;28;20239;-57
2022/03/04 12:00:21;;;;;;;6.70;5.83;;;;;;;;;;5033266;28;20793;-60
2022/03/04 12:02:47;;;;;;;8.40;6.20;;;;;;;;;;5032865;28;20260;-57
2022/03/04 12:05:28;;;;;;;7.23;5.70;;;;;;;;;;5033093;28;20679;-57
2022/03/04 12:08:08;;;;;;;6.87;5.30;;;;;;;;;;5032805;28;20556;-58
2022/03/04 12:10:39;;;;;;;6.80;5.50;;;;;;;;;;5032829;28;20671;-58
2022/03/04 12:13:06;;;;;;;7.63;6.13;;;;;;;;;;5032663;28;20193;-58
2022/03/04 12:15:38;;;;;;;6.97;5.50;;;;;;;;;;5031044;28;20197;-59
2022/03/04 12:18:06;;;;;;;7.07;5.57;;;;;;;;;;5032837;28;20216;-58
2022/03/04 12:20:53;;;;;;;6.60;5.40;;;;;;;;;;5031075;28;20570;-57
2022/03/04 12:23:19;;;;;;;6.40;5.57;;;;;;;;;;5032519;28;20654;-59
2022/03/04 12:26:06;;;;;;;7.47;6.03;;;;;;;;;;5032706;28;20241;-59
2022/03/04 12:28:33;;;;;;;7.43;5.93;;;;;;;;;;5032329;28;20200;-58
2022/03/04 12:31:17;;;;;;;7.67;6.37;;;;;;;;;;5032729;28;20236;-58
2022/03/04 12:33:44;;;;;;;7.87;6.30;;;;;;;;;;5032578;28;20209;-57
2022/03/04 12:36:11;;;;;;;8.63;6.67;;;;;;;;;;5032372;28;20654;-58
2022/03/04 12:38:39;;;;;;;9.47;7.17;;;;;;;;;;5031818;28;20196;-58
2022/03/04 12:41:06;;;;;;;9.10;7.10;;;;;;;;;;5032131;28;20631;-60
2022/03/04 12:43:39;;;;;;;10.10;6.97;;;;;;;;;;5032486;28;20280;-58
2022/03/04 12:46:05;;;;;;;9.97;7.67;;;;;;;;;;5032391;28;20201;-56
2022/03/04 12:48:32;;;;;;;8.63;6.80;;;;;;;;;;5032296;28;20251;-55
2022/03/04 12:50:58;;;;;;;8.83;6.77;;;;;;;;;;5032264;28;20201;-57
2022/03/04 12:53:27;;;;;;;7.33;6.37;;;;;;;;;;5031980;28;20280;-57
2022/03/04 12:55:55;;;;;;;8.27;5.90;;;;;;;;;;5032263;28;20200;-56
2022/03/04 12:58:36;;;;;;;7.57;6.73;;;;;;;;;;5032041;28;20200;-57
2022/03/04 13:01:03;;;;;;;8.17;6.40;;;;;;;;;;5029571;28;20201;-57
2022/03/04 13:03:31;;;;;;;7.23;5.77;;;;;;;;;;5031856;28;20209;-58
2022/03/04 13:05:58;;;;;;;7.60;6.20;;;;;;;;;;5032223;28;20247;-55
2022/03/04 13:08:24;;;;;;;7.53;5.80;;;;;;;;;;5031796;28;20228;-56
2022/03/04 13:10:52;;;;;;;7.00;5.80;;;;;;;;;;5031761;28;20212;-56
2022/03/04 13:13:18;;;;;;;11.23;6.10;;;;;;;;;;5031589;28;20216;-55
2022/03/04 13:15:45;;;;;;;7.80;6.00;;;;;;;;;;5031761;28;20275;-54
2022/03/04 13:18:11;;;;;;;7.67;6.10;;;;;;;;;;5031825;28;20192;-54
2022/03/04 13:20:39;;;;;;;7.17;5.97;;;;;;;;;;5031775;28;20239;-54
2022/03/04 13:23:07;;;;;;;6.30;5.40;;;;;;;;;;5031591;28;20245;-52
2022/03/04 13:25:33;;;;;;;5.73;5.13;;;;;;;;;;5031410;28;20241;-54
2022/03/04 13:27:59;;;;;;;8.10;5.03;;;;;;;;;;5031900;28;20196;-55
2022/03/04 13:30:25;;;;;;;6.30;5.70;;;;;;;;;;5031234;28;20203;-56
2022/03/04 13:32:55;;;;;;;5.50;4.80;;;;;;;;;;5031418;28;20224;-56
2022/03/04 13:35:24;;;;;;;5.47;4.93;;;;;;;;;;5031426;28;20595;-57
2022/03/04 13:37:52;;;;;;;6.23;4.77;;;;;;;;;;5031464;28;20200;-54
2022/03/04 13:40:20;;;;;;;4.87;4.37;;;;;;;;;;5031263;28;20272;-54
2022/03/04 13:42:52;;;;;;;5.00;4.50;;;;;;;;;;5031341;28;20217;-56
2022/03/04 13:45:27;;;;;;;4.63;4.13;;;;;;;;;;5031295;28;20224;-56
2022/03/04 13:47:56;;;;;;;4.63;4.20;;;;;;;;;;5031477;28;20263;-56
2022/03/04 13:50:23;;;;;;;6.57;4.30;;;;;;;;;;5031327;28;20261;-55
2022/03/04 13:52:50;;;;;;;4.23;3.83;;;;;;;;;;5031509;28;20274;-56
2022/03/04 13:55:17;;;;;;;7.70;3.70;;;;;;;;;;5031189;28;20216;-55
2022/03/04 13:57:47;;;;;;;3.90;3.20;;;;;;;;;;5031603;28;20196;-56
2022/03/04 14:00:14;;;;;;;7.00;3.60;;;;;;;;;;5031309;28;20205;-56
2022/03/04 14:02:44;;;;;;;5.00;3.10;;;;;;;;;;5034052;28;20674;-56
2022/03/04 14:05:11;;;;;;;4.77;3.37;;;;;;;;;;5035114;28;20495;-56
2022/03/04 14:07:44;;;;;;;4.23;3.33;;;;;;;;;;5035119;28;20204;-55
2022/03/04 14:10:11;;;;;;;3.97;3.47;;;;;;;;;;5030757;28;20436;-55
2022/03/04 14:12:37;;;;;;;4.67;3.40;;;;;;;;;;5052412;28;20196;-55
2022/03/04 14:15:05;;;;;;;4.07;3.33;;;;;;;;;;5055102;28;20204;-55
2022/03/04 14:17:31;;;;;;;7.37;5.53;;;;;;;;;;5054848;28;20652;-55
2022/03/04 14:19:57;;;;;;;6.00;4.73;;;;;;;;;;5055052;28;20196;-55
2022/03/04 14:22:23;;;;;;;9.57;4.23;;;;;;;;;;5054775;28;20224;-55
2022/03/04 14:24:50;;;;;;;4.70;3.17;;;;;;;;;;5054751;28;20278;-56
2022/03/04 14:27:16;;;;;;;3.67;3.13;;;;;;;;;;5054603;28;20246;-54
2022/03/04 14:29:43;;;;;;;3.50;2.90;;;;;;;;;;5055114;28;20200;-56
2022/03/04 14:32:10;;;;;;;3.67;2.90;;;;;;;;;;5054637;28;20203;-54
2022/03/04 14:34:36;;;;;;;3.50;2.90;;;;;;;;;;5054190;28;20291;-55